createdAt,value
2023-01-30T00:00:06.933Z,7.37
2023-01-30T00:02:35.277Z,6.13
2023-01-30T00:05:03.682Z,7.70
2023-01-30T00:07:32.140Z,7.13
2023-01-30T00:10:00.545Z,7.00
2023-01-30T00:12:28.907Z,6.90
2023-01-30T00:14:58.733Z,6.83
2023-01-30T00:17:27.132Z,7.10
2023-01-30T00:19:55.651Z,5.97
2023-01-30T00:22:24.109Z,6.97
2023-01-30T00:24:52.634Z,6.40
2023-01-30T00:27:21.135Z,5.90
2023-01-30T00:30:02.205Z,6.40
2023-01-30T00:32:32.748Z,5.73
2023-01-30T00:35:01.243Z,6.20
2023-01-30T00:37:29.750Z,6.03
2023-01-30T00:39:58.134Z,6.20
2023-01-30T00:42:49.471Z,6.17
2023-01-30T00:45:35.445Z,5.33
2023-01-30T00:48:05.459Z,5.10
2023-01-30T00:50:42.617Z,5.30
2023-01-30T00:53:11.844Z,4.20
2023-01-30T00:55:40.219Z,5.70
2023-01-30T00:58:08.592Z,5.33
2023-01-30T01:00:37.215Z,4.17
2023-01-30T01:03:07.098Z,4.77
2023-01-30T01:05:35.591Z,4.70
2023-01-30T01:08:04.066Z,4.97
2023-01-30T01:10:32.520Z,5.20
2023-01-30T01:13:01.012Z,5.10
2023-01-30T01:15:29.527Z,4.83
2023-01-30T01:17:57.916Z,5.07
2023-01-30T01:20:27.707Z,4.80
2023-01-30T01:22:56.370Z,4.80
2023-01-30T01:25:24.939Z,4.90
2023-01-30T01:27:53.454Z,4.57
2023-01-30T01:30:21.948Z,4.63
2023-01-30T01:32:50.442Z,3.40
2023-01-30T01:35:20.064Z,4.63
2023-01-30T01:37:50.000Z,4.00
2023-01-30T01:40:37.280Z,4.10
2023-01-30T01:43:08.284Z,4.30
2023-01-30T01:45:36.858Z,3.40
2023-01-30T01:48:06.262Z,4.10
2023-01-30T01:50:42.248Z,4.10
2023-01-30T01:53:12.131Z,3.83
2023-01-30T01:55:40.545Z,4.90
2023-01-30T01:58:09.897Z,3.70
2023-01-30T02:00:38.313Z,3.60
2023-01-30T02:03:07.181Z,3.73
2023-01-30T02:05:36.172Z,4.57
2023-01-30T02:08:05.529Z,3.87
2023-01-30T02:10:38.858Z,3.70
2023-01-30T02:13:07.358Z,3.33
2023-01-30T02:15:35.737Z,3.73
2023-01-30T02:18:04.217Z,3.30
2023-01-30T02:20:33.283Z,3.30
2023-01-30T02:23:16.531Z,3.17
2023-01-30T02:25:58.463Z,3.90
2023-01-30T02:28:41.693Z,3.50
2023-01-30T02:31:14.485Z,3.73
2023-01-30T02:33:44.440Z,3.83
2023-01-30T02:36:15.553Z,3.80
2023-01-30T02:38:45.480Z,3.43
2023-01-30T02:41:15.683Z,3.07
2023-01-30T02:43:46.413Z,3.47
2023-01-30T02:46:17.664Z,3.73
2023-01-30T02:48:46.417Z,3.57
2023-01-30T02:51:15.925Z,4.37
2023-01-30T02:53:44.354Z,3.87
2023-01-30T02:56:12.736Z,3.27
2023-01-30T02:58:43.157Z,3.73
2023-01-30T03:01:26.504Z,3.77
2023-01-30T03:04:00.017Z,3.50
2023-01-30T03:06:34.878Z,4.33
2023-01-30T03:09:09.398Z,3.40
2023-01-30T03:11:40.018Z,3.87
2023-01-30T03:14:09.925Z,4.17
2023-01-30T03:16:39.048Z,3.93
2023-01-30T03:19:12.246Z,3.90
2023-01-30T03:21:42.337Z,3.87
2023-01-30T03:24:10.692Z,3.33
2023-01-30T03:26:40.077Z,3.90
2023-01-30T03:29:08.628Z,3.90
2023-01-30T03:31:37.383Z,4.00
2023-01-30T03:34:05.987Z,4.30
2023-01-30T03:36:35.735Z,4.47
2023-01-30T03:39:04.100Z,3.70
2023-01-30T03:41:32.482Z,4.03
2023-01-30T03:44:00.906Z,4.43
2023-01-30T03:46:29.379Z,4.47
2023-01-30T03:48:57.895Z,4.00
2023-01-30T03:51:26.325Z,4.33
2023-01-30T03:53:56.208Z,4.50
2023-01-30T03:56:24.628Z,5.00
2023-01-30T03:58:53.133Z,5.00
2023-01-30T04:01:21.672Z,4.57
2023-01-30T04:03:50.077Z,4.50
2023-01-30T04:06:18.420Z,5.03
2023-01-30T04:08:46.882Z,4.17
2023-01-30T04:11:16.785Z,4.53
2023-01-30T04:13:45.361Z,3.97
2023-01-30T04:16:17.452Z,4.03
2023-01-30T04:18:46.042Z,4.07
2023-01-30T04:21:14.505Z,3.23
2023-01-30T04:23:42.892Z,3.50
2023-01-30T04:26:11.420Z,3.07
2023-01-30T04:28:41.282Z,3.47
2023-01-30T04:31:09.830Z,3.10
2023-01-30T04:33:40.019Z,3.57
2023-01-30T04:36:09.065Z,3.27
2023-01-30T04:38:37.612Z,2.93
2023-01-30T04:41:06.153Z,3.23
2023-01-30T04:43:34.736Z,3.07
2023-01-30T04:46:04.606Z,3.40
2023-01-30T04:48:33.251Z,2.23
2023-01-30T04:51:01.704Z,2.57
2023-01-30T04:53:30.203Z,2.57
2023-01-30T04:55:58.623Z,3.10
2023-01-30T04:58:27.040Z,3.40
2023-01-30T05:00:55.549Z,3.30
2023-01-30T05:03:25.415Z,2.70
2023-01-30T05:05:53.874Z,4.37
2023-01-30T05:08:22.241Z,3.43
2023-01-30T05:10:50.692Z,3.70
2023-01-30T05:13:19.142Z,2.93
2023-01-30T05:15:47.581Z,3.03
2023-01-30T05:18:16.020Z,3.03
2023-01-30T05:20:45.860Z,4.90
2023-01-30T05:23:14.298Z,3.80
2023-01-30T05:25:42.833Z,3.10
2023-01-30T05:28:11.838Z,3.53
2023-01-30T05:30:40.235Z,3.67
2023-01-30T05:33:08.772Z,3.63
2023-01-30T05:35:37.254Z,3.47
2023-01-30T05:38:07.135Z,3.63
2023-01-30T05:40:35.588Z,4.20
2023-01-30T05:43:04.152Z,3.50
2023-01-30T05:45:32.712Z,3.77
2023-01-30T05:48:01.695Z,3.73
2023-01-30T05:50:30.384Z,3.73
2023-01-30T05:52:58.851Z,4.80
2023-01-30T05:55:28.685Z,4.13
2023-01-30T05:57:57.080Z,4.87
2023-01-30T06:00:25.659Z,3.77
2023-01-30T06:02:54.298Z,4.60
2023-01-30T06:05:22.754Z,4.60
2023-01-30T06:07:51.420Z,4.00
2023-01-30T06:10:19.967Z,4.00
2023-01-30T06:12:49.821Z,4.40
2023-01-30T06:15:18.639Z,4.63
2023-01-30T06:17:47.390Z,4.37
2023-01-30T06:20:15.898Z,4.23
2023-01-30T06:22:44.584Z,4.37
2023-01-30T06:25:13.139Z,4.73
2023-01-30T06:27:41.573Z,3.93
2023-01-30T06:30:13.507Z,4.17
2023-01-30T06:32:42.894Z,4.03
2023-01-30T06:35:11.495Z,3.80
2023-01-30T06:37:40.334Z,4.23
2023-01-30T06:40:09.248Z,3.57
2023-01-30T06:42:37.725Z,4.20
2023-01-30T06:45:06.614Z,3.90
2023-01-30T06:47:36.483Z,3.47
2023-01-30T06:50:04.998Z,3.53
2023-01-30T06:52:33.622Z,4.30
2023-01-30T06:55:02.287Z,3.63
2023-01-30T06:57:30.942Z,3.87
2023-01-30T06:59:59.364Z,4.40
2023-01-30T07:02:27.913Z,3.67
2023-01-30T07:04:57.724Z,3.60
2023-01-30T07:07:26.094Z,3.63
2023-01-30T07:10:06.973Z,3.83
2023-01-30T07:12:36.367Z,4.67
2023-01-30T07:15:05.713Z,3.70
2023-01-30T07:17:34.118Z,3.37
2023-01-30T07:20:04.151Z,4.20
2023-01-30T07:22:35.591Z,3.87
2023-01-30T07:25:04.013Z,4.20
2023-01-30T07:27:32.388Z,3.23
2023-01-30T07:30:01.034Z,5.00
2023-01-30T07:32:29.488Z,3.50
2023-01-30T07:34:57.959Z,3.53
2023-01-30T07:37:27.825Z,3.00
2023-01-30T07:39:56.171Z,3.60
2023-01-30T07:42:24.618Z,3.60
2023-01-30T07:44:53.110Z,3.60
2023-01-30T07:47:21.590Z,2.67
2023-01-30T07:49:53.094Z,3.80
2023-01-30T07:52:21.670Z,3.80
2023-01-30T07:55:01.462Z,3.43
2023-01-30T07:57:30.321Z,3.93
2023-01-30T07:59:58.793Z,3.93
2023-01-30T08:02:31.152Z,3.70
2023-01-30T08:04:59.801Z,4.53
2023-01-30T08:07:28.406Z,3.67
2023-01-30T08:09:58.195Z,3.43
2023-01-30T08:12:26.689Z,4.07
2023-01-30T08:14:55.056Z,5.70
2023-01-30T08:17:23.595Z,4.03
2023-01-30T08:19:52.049Z,3.57
2023-01-30T08:22:20.407Z,4.00
2023-01-30T08:24:48.850Z,3.37
2023-01-30T08:27:18.996Z,4.07
2023-01-30T08:29:50.417Z,3.83
2023-01-30T08:32:18.954Z,3.90
2023-01-30T08:34:47.363Z,3.47
2023-01-30T08:37:18.561Z,3.70
2023-01-30T08:39:48.115Z,3.90
2023-01-30T08:42:16.456Z,3.47
2023-01-30T08:44:46.228Z,4.23
2023-01-30T08:47:14.699Z,3.87
2023-01-30T08:49:43.303Z,2.93
2023-01-30T08:52:12.053Z,3.23
2023-01-30T08:54:40.447Z,4.03
2023-01-30T08:57:08.777Z,3.70
2023-01-30T08:59:37.209Z,2.70
2023-01-30T09:02:10.711Z,3.07
2023-01-30T09:04:39.351Z,3.63
2023-01-30T09:07:07.996Z,2.83
2023-01-30T09:09:36.681Z,3.57
2023-01-30T09:12:05.209Z,3.73
2023-01-30T09:14:33.657Z,4.07
2023-01-30T09:17:02.002Z,3.50
2023-01-30T09:19:31.807Z,3.73
2023-01-30T09:22:00.431Z,3.30
2023-01-30T09:24:29.017Z,3.00
2023-01-30T09:26:59.104Z,3.73
2023-01-30T09:29:27.618Z,3.20
2023-01-30T09:31:56.629Z,4.40
2023-01-30T09:34:27.581Z,3.47
2023-01-30T09:36:57.552Z,3.63
2023-01-30T09:39:25.947Z,4.20
2023-01-30T09:42:18.444Z,3.83
2023-01-30T09:44:59.888Z,3.20
2023-01-30T09:47:30.712Z,4.57
2023-01-30T09:50:00.376Z,3.43
2023-01-30T09:52:32.857Z,3.87
2023-01-30T09:55:02.648Z,4.07
2023-01-30T09:57:31.069Z,3.50
2023-01-30T10:00:00.012Z,4.03
2023-01-30T10:02:33.759Z,4.10
2023-01-30T10:05:05.453Z,3.40
2023-01-30T10:07:37.805Z,3.50
2023-01-30T10:10:09.621Z,3.17
2023-01-30T10:12:41.397Z,4.07
2023-01-30T10:15:15.163Z,3.87
2023-01-30T10:17:47.076Z,3.00
2023-01-30T10:20:26.675Z,3.70
2023-01-30T10:22:59.117Z,3.80
2023-01-30T10:25:29.015Z,3.60
2023-01-30T10:27:58.503Z,3.50
2023-01-30T10:30:26.918Z,3.57
2023-01-30T10:32:55.864Z,3.27
2023-01-30T10:35:26.222Z,3.43
2023-01-30T10:38:04.894Z,3.17
2023-01-30T10:40:35.581Z,3.73
2023-01-30T10:43:05.307Z,3.60
2023-01-30T10:45:39.631Z,3.13
2023-01-30T10:48:13.247Z,3.17
2023-01-30T10:50:44.737Z,3.63
2023-01-30T10:53:15.745Z,3.53
2023-01-30T10:55:45.493Z,3.87
2023-01-30T10:58:16.265Z,4.60
2023-01-30T11:00:49.693Z,3.87
2023-01-30T11:03:21.499Z,3.60
2023-01-30T11:05:50.801Z,3.00
2023-01-30T11:08:24.768Z,3.67
2023-01-30T11:10:53.178Z,3.67
2023-01-30T11:13:21.896Z,4.13
2023-01-30T11:15:51.324Z,4.33
2023-01-30T11:19:14.026Z,4.83
2023-01-30T11:21:09.595Z,3.53
2023-01-30T11:23:41.460Z,3.90
2023-01-30T11:26:12.005Z,4.03
2023-01-30T11:28:42.218Z,4.10
2023-01-30T11:31:19.756Z,3.67
2023-01-30T11:34:00.723Z,4.23
2023-01-30T11:36:29.579Z,4.07
2023-01-30T11:39:00.445Z,4.20
2023-01-30T11:41:29.772Z,4.50
2023-01-30T11:44:04.728Z,4.30
2023-01-30T11:46:36.146Z,4.20
2023-01-30T11:49:46.995Z,4.97
2023-01-30T11:51:54.427Z,4.20
2023-01-30T11:54:25.181Z,4.47
2023-01-30T11:56:54.279Z,4.10
2023-01-30T12:00:02.936Z,4.00
2023-01-30T12:02:33.906Z,4.63
2023-01-30T12:05:02.935Z,3.63
2023-01-30T12:07:35.283Z,4.50
2023-01-30T12:10:06.663Z,5.00
2023-01-30T12:12:35.534Z,4.43
2023-01-30T12:15:08.908Z,4.27
2023-01-30T12:17:39.049Z,3.97
2023-01-30T12:20:07.757Z,4.40
2023-01-30T12:22:47.986Z,4.93
2023-01-30T12:25:18.243Z,4.57
2023-01-30T12:27:49.717Z,3.97
2023-01-30T12:30:22.020Z,4.23
2023-01-30T12:32:51.765Z,5.20
2023-01-30T12:35:20.636Z,3.67
2023-01-30T12:37:53.060Z,3.83
2023-01-30T12:40:26.421Z,4.40
2023-01-30T12:43:15.654Z,3.70
2023-01-30T12:45:46.322Z,4.43
2023-01-30T12:48:19.417Z,3.93
2023-01-30T12:51:10.815Z,3.70
2023-01-30T12:53:42.023Z,4.77
2023-01-30T12:56:19.778Z,3.73
2023-01-30T12:58:49.992Z,3.90
2023-01-30T13:01:22.520Z,5.33
2023-01-30T13:03:52.816Z,4.80
2023-01-30T13:06:28.032Z,4.37
2023-01-30T13:08:59.825Z,4.77
2023-01-30T13:11:36.185Z,3.67
2023-01-30T13:14:06.658Z,4.97
2023-01-30T13:16:37.695Z,5.17
2023-01-30T13:19:09.913Z,3.40
2023-01-30T13:21:39.473Z,4.73
2023-01-30T13:24:12.439Z,4.83
2023-01-30T13:26:51.421Z,4.17
2023-01-30T13:29:25.187Z,4.97
2023-01-30T13:31:54.194Z,4.30
2023-01-30T13:34:24.606Z,4.97
2023-01-30T13:36:54.032Z,4.77
2023-01-30T13:39:28.545Z,5.23
2023-01-30T13:42:00.541Z,5.47
2023-01-30T13:44:30.910Z,4.47
2023-01-30T13:46:59.520Z,4.73
2023-01-30T13:49:30.304Z,4.13
2023-01-30T13:51:59.219Z,3.77
2023-01-30T13:54:53.389Z,4.83
2023-01-30T13:57:26.800Z,4.37
2023-01-30T14:03:32.147Z,4.53
2023-01-30T14:06:21.665Z,4.70
2023-01-30T14:08:51.007Z,3.87
2023-01-30T14:11:43.563Z,4.93
2023-01-30T14:14:32.562Z,4.67
2023-01-30T14:17:09.926Z,4.47
2023-01-30T14:19:39.430Z,4.17
2023-01-30T14:22:18.793Z,4.70
2023-01-30T14:24:47.087Z,3.90
2023-01-30T14:27:26.519Z,4.80
2023-01-30T14:29:59.202Z,4.93
2023-01-30T14:32:45.577Z,4.23
2023-01-30T14:35:18.629Z,4.50
2023-01-30T14:37:48.063Z,4.50
2023-01-30T14:40:29.927Z,3.87
2023-01-30T14:43:13.191Z,4.57
2023-01-30T14:45:47.032Z,4.33
2023-01-30T14:48:29.505Z,5.33
2023-01-30T14:51:19.503Z,5.53
2023-01-30T14:53:55.336Z,5.43
2023-01-30T14:56:38.242Z,5.10
2023-01-30T14:59:07.254Z,4.50
2023-01-30T15:01:50.639Z,4.03
2023-01-30T15:04:20.524Z,5.33
2023-01-30T15:06:49.038Z,4.77
2023-01-30T15:09:18.061Z,4.43
2023-01-30T15:11:46.558Z,4.07
2023-01-30T15:14:15.143Z,5.23
2023-01-30T15:16:56.366Z,4.63
2023-01-30T15:19:35.724Z,5.13
2023-01-30T15:22:06.149Z,4.53
2023-01-30T15:24:45.367Z,4.73
2023-01-30T15:27:15.030Z,4.47
2023-01-30T15:29:50.623Z,4.67
2023-01-30T15:32:19.411Z,4.33
2023-01-30T15:34:53.408Z,6.00
2023-01-30T15:37:31.536Z,4.07
2023-01-30T15:40:27.218Z,4.17
2023-01-30T15:42:57.675Z,4.17
2023-01-30T15:45:28.953Z,4.87
2023-01-30T15:48:15.444Z,4.33
2023-01-30T15:50:50.496Z,4.57
2023-01-30T15:53:18.875Z,4.53
2023-01-30T15:55:47.262Z,7.00
2023-01-30T15:58:16.568Z,4.47
2023-01-30T16:00:46.392Z,4.33
2023-01-30T16:03:15.592Z,4.13
2023-01-30T16:05:52.685Z,5.07
2023-01-30T16:08:23.516Z,4.80
2023-01-30T16:10:52.069Z,4.93
2023-01-30T16:13:21.182Z,5.10
2023-01-30T16:15:50.720Z,5.40
2023-01-30T16:18:23.319Z,4.40
2023-01-30T16:21:01.516Z,4.33
2023-01-30T16:23:32.521Z,5.63
2023-01-30T16:26:00.942Z,5.00
2023-01-30T16:28:29.516Z,5.10
2023-01-30T16:31:01.285Z,4.50
2023-01-30T16:33:35.815Z,5.03
2023-01-30T16:36:04.472Z,4.87
2023-01-30T16:38:36.620Z,4.70
2023-01-30T16:41:05.145Z,4.77
2023-01-30T16:43:33.762Z,5.10
2023-01-30T16:46:24.783Z,4.37
2023-01-30T16:48:53.275Z,3.60
2023-01-30T16:51:22.529Z,5.10
2023-01-30T16:54:00.296Z,5.17
2023-01-30T16:56:29.125Z,4.53
2023-01-30T16:58:58.315Z,4.30
2023-01-30T17:01:35.965Z,5.13
2023-01-30T17:04:05.224Z,4.47
2023-01-30T17:06:35.675Z,4.47
2023-01-30T17:09:05.963Z,4.27
2023-01-30T17:11:35.482Z,3.60
2023-01-30T17:14:24.761Z,5.60
2023-01-30T17:17:08.882Z,4.60
2023-01-30T17:19:53.251Z,4.13
2023-01-30T17:22:24.554Z,4.70
2023-01-30T17:24:54.419Z,4.93
2023-01-30T17:27:22.820Z,3.77
2023-01-30T17:30:00.618Z,4.60
2023-01-30T17:32:29.258Z,4.00
2023-01-30T17:34:59.441Z,3.47
2023-01-30T17:37:28.111Z,4.00
2023-01-30T17:39:57.937Z,3.80
2023-01-30T17:42:26.430Z,4.67
2023-01-30T17:44:55.118Z,3.93
2023-01-30T17:47:23.743Z,4.70
2023-01-30T17:49:52.549Z,3.47
2023-01-30T17:52:20.947Z,3.87
2023-01-30T17:54:49.434Z,4.10
2023-01-30T17:57:20.392Z,3.93
2023-01-30T17:59:48.852Z,3.53
2023-01-30T18:02:17.436Z,4.03
2023-01-30T18:04:46.138Z,3.47
2023-01-30T18:07:15.016Z,3.87
2023-01-30T18:09:43.820Z,2.83
2023-01-30T18:12:12.294Z,3.37
2023-01-30T18:14:42.377Z,3.87
2023-01-30T18:17:11.312Z,3.30
2023-01-30T18:19:40.019Z,3.43
2023-01-30T18:22:09.771Z,3.37
2023-01-30T18:24:39.310Z,3.50
2023-01-30T18:27:07.837Z,3.60
2023-01-30T18:29:36.769Z,3.30
2023-01-30T18:32:07.047Z,4.27
2023-01-30T18:34:36.399Z,3.97
2023-01-30T18:37:05.189Z,3.67
2023-01-30T18:39:35.001Z,2.70
2023-01-30T18:42:08.260Z,3.33
2023-01-30T18:44:36.847Z,3.50
2023-01-30T18:47:06.957Z,4.97
2023-01-30T18:49:38.245Z,3.97
2023-01-30T18:52:07.793Z,3.43
2023-01-30T18:54:40.234Z,3.17
2023-01-30T18:57:08.676Z,3.80
2023-01-30T18:59:37.784Z,3.27
2023-01-30T19:02:10.916Z,3.27
2023-01-30T19:04:48.769Z,3.50
2023-01-30T19:07:17.492Z,3.87
2023-01-30T19:09:46.087Z,3.60
2023-01-30T19:12:32.067Z,2.83
2023-01-30T19:15:03.548Z,3.23
2023-01-30T19:17:33.915Z,3.37
2023-01-30T19:20:10.738Z,3.20
2023-01-30T19:22:39.736Z,3.53
2023-01-30T19:25:09.081Z,3.57
2023-01-30T19:27:56.814Z,3.47
2023-01-30T19:30:25.349Z,3.50
2023-01-30T19:32:58.679Z,3.47
2023-01-30T19:35:27.428Z,3.40
2023-01-30T19:37:57.544Z,3.90
2023-01-30T19:40:25.954Z,3.23
2023-01-30T19:42:56.826Z,3.20
2023-01-30T19:45:28.685Z,3.60
2023-01-30T19:47:58.553Z,3.40
2023-01-30T19:50:27.059Z,2.90
2023-01-30T19:52:55.607Z,2.67
2023-01-30T19:55:24.725Z,3.73
2023-01-30T19:57:53.231Z,3.37
2023-01-30T20:00:22.419Z,3.43
2023-01-30T20:02:52.517Z,4.70
2023-01-30T20:05:22.480Z,3.53
2023-01-30T20:07:50.912Z,3.33
2023-01-30T20:10:19.736Z,3.00
2023-01-30T20:12:48.397Z,5.70
2023-01-30T20:15:24.640Z,3.10
2023-01-30T20:17:53.070Z,2.83
2023-01-30T20:20:23.094Z,3.00
2023-01-30T20:22:51.488Z,4.10
2023-01-30T20:25:19.943Z,3.00
2023-01-30T20:27:48.401Z,3.20
2023-01-30T20:30:19.426Z,3.23
2023-01-30T20:32:48.027Z,3.07
2023-01-30T20:35:17.819Z,3.57
2023-01-30T20:37:47.736Z,3.50
2023-01-30T20:40:16.947Z,3.00
2023-01-30T20:42:45.746Z,3.77
2023-01-30T20:45:14.279Z,3.27
2023-01-30T20:47:45.706Z,3.10
2023-01-30T20:50:14.666Z,3.60
2023-01-30T20:52:48.598Z,3.83
2023-01-30T20:55:17.140Z,3.47
2023-01-30T20:57:45.604Z,3.50
2023-01-30T21:00:14.452Z,5.10
2023-01-30T21:02:45.627Z,4.90
2023-01-30T21:05:14.012Z,4.07
2023-01-30T21:07:42.749Z,3.77
2023-01-30T21:10:13.259Z,3.07
2023-01-30T21:12:41.821Z,3.33
2023-01-30T21:15:10.881Z,4.23
2023-01-30T21:17:39.459Z,2.80
2023-01-30T21:20:08.270Z,3.63
2023-01-30T21:22:36.982Z,2.93
2023-01-30T21:25:06.072Z,2.93
2023-01-30T21:27:37.364Z,2.97
2023-01-30T21:30:07.804Z,3.13
2023-01-30T21:32:36.736Z,3.63
2023-01-30T21:35:05.151Z,3.30
2023-01-30T21:37:51.060Z,3.30
2023-01-30T21:40:40.194Z,3.90
2023-01-30T21:43:16.558Z,3.33
2023-01-30T21:45:45.007Z,3.27
2023-01-30T21:48:13.525Z,3.50
2023-01-30T21:50:41.871Z,4.17
2023-01-30T21:53:10.380Z,3.87
2023-01-30T21:55:51.233Z,3.07
2023-01-30T21:58:20.972Z,3.43
2023-01-30T22:00:49.922Z,2.73
2023-01-30T22:03:18.336Z,5.00
2023-01-30T22:05:46.853Z,3.23
2023-01-30T22:08:15.151Z,4.07
2023-01-30T22:10:43.573Z,3.60
2023-01-30T22:13:11.998Z,3.57
2023-01-30T22:15:41.702Z,3.70
2023-01-30T22:18:10.008Z,3.30
2023-01-30T22:20:38.610Z,3.57
2023-01-30T22:23:13.304Z,3.00
2023-01-30T22:25:41.586Z,3.80
2023-01-30T22:28:10.343Z,4.00
2023-01-30T22:30:38.713Z,5.00
2023-01-30T22:33:08.814Z,3.80
2023-01-30T22:35:37.324Z,4.73
2023-01-30T22:38:05.700Z,3.77
2023-01-30T22:40:34.028Z,4.33
2023-01-30T22:43:02.318Z,3.73
2023-01-30T22:45:30.659Z,4.27
2023-01-30T22:47:59.050Z,3.50
2023-01-30T22:50:29.060Z,3.70
2023-01-30T22:52:57.563Z,3.87
2023-01-30T22:55:28.954Z,3.70
2023-01-30T22:57:57.332Z,3.73
2023-01-30T23:00:25.875Z,3.43
2023-01-30T23:02:54.284Z,3.60
2023-01-30T23:05:22.711Z,5.20
2023-01-30T23:07:52.384Z,3.70
2023-01-30T23:10:21.026Z,4.23
2023-01-30T23:13:07.787Z,3.60
2023-01-30T23:15:39.114Z,3.80
2023-01-30T23:18:25.261Z,3.83
2023-01-30T23:20:53.950Z,3.47
2023-01-30T23:23:23.649Z,3.93
2023-01-30T23:25:52.394Z,3.33
2023-01-30T23:28:21.032Z,3.63
2023-01-30T23:30:49.518Z,4.57
2023-01-30T23:33:17.983Z,3.40
2023-01-30T23:35:46.292Z,4.20
2023-01-30T23:38:19.324Z,3.83
2023-01-30T23:40:49.487Z,3.40
2023-01-30T23:43:18.315Z,3.90
2023-01-30T23:45:46.879Z,3.47
2023-01-30T23:48:15.367Z,3.93
2023-01-30T23:50:44.184Z,3.30
2023-01-30T23:53:12.546Z,2.87
2023-01-30T23:55:40.859Z,3.83
2023-01-30T23:58:10.717Z,3.17
